createdAt,value
2023-04-05T00:00:37.742Z,95862.44
2023-04-05T00:03:40.631Z,95856.81
2023-04-05T00:06:43.666Z,95844.25
2023-04-05T00:09:45.168Z,95846.91
2023-04-05T00:12:46.944Z,95840.50
2023-04-05T00:15:48.752Z,95843.94
2023-04-05T00:18:50.397Z,95835.16
2023-04-05T00:21:53.566Z,95843.78
2023-04-05T00:24:55.087Z,95839.56
2023-04-05T00:27:56.849Z,95835.31
2023-04-05T00:30:58.397Z,95838.16
2023-04-05T00:34:00.160Z,95834.06
2023-04-05T00:37:05.629Z,95837.69
2023-04-05T00:40:09.162Z,95830.94
2023-04-05T00:43:10.841Z,95833.13
2023-04-05T00:46:12.556Z,95821.69
2023-04-05T00:49:14.635Z,95828.13
2023-04-05T00:52:18.090Z,95821.84
2023-04-05T00:55:20.375Z,95823.88
2023-04-05T00:58:22.689Z,95819.81
2023-04-05T01:01:25.309Z,95812.91
2023-04-05T01:04:28.656Z,95813.38
2023-04-05T01:07:38.309Z,95819.19
2023-04-05T01:10:42.985Z,95809.19
2023-04-05T01:13:46.022Z,95808.38
2023-04-05T01:16:47.504Z,95806.81
2023-04-05T01:19:50.499Z,95798.38
2023-04-05T01:23:05.665Z,95800.53
2023-04-05T01:26:42.725Z,95796.16
2023-04-05T01:30:04.089Z,95794.63
2023-04-05T01:33:13.185Z,95788.50
2023-04-05T01:36:17.669Z,95789.00
2023-04-05T01:39:20.491Z,95789.91
2023-04-05T01:42:23.698Z,95779.59
2023-04-05T01:45:26.680Z,95787.56
2023-04-05T01:48:28.410Z,95788.34
2023-04-05T01:51:30.753Z,95775.34
2023-04-05T01:54:33.930Z,95780.06
2023-04-05T01:57:35.924Z,95778.03
2023-04-05T02:00:39.331Z,95781.16
2023-04-05T02:03:41.530Z,95790.25
2023-04-05T02:06:43.171Z,95784.94
2023-04-05T02:09:45.297Z,95782.56
2023-04-05T02:12:46.876Z,95786.19
2023-04-05T02:15:50.900Z,95784.63
2023-04-05T02:18:52.676Z,95787.25
2023-04-05T02:21:54.249Z,95779.91
2023-04-05T02:24:58.092Z,95786.97
2023-04-05T02:27:59.661Z,95787.13
2023-04-05T02:31:08.223Z,95784.91
2023-04-05T02:34:11.210Z,95788.81
2023-04-05T02:37:12.773Z,95779.75
2023-04-05T02:40:15.232Z,95783.03
2023-04-05T02:43:17.649Z,95776.31
2023-04-05T02:46:21.611Z,95783.19
2023-04-05T02:49:23.488Z,95780.31
2023-04-05T02:52:25.025Z,95780.28
2023-04-05T02:55:26.823Z,95770.28
2023-04-05T02:58:28.441Z,95776.47
2023-04-05T03:01:32.773Z,95771.47
2023-04-05T03:04:34.680Z,95767.13
2023-04-05T03:07:36.235Z,95771.56
2023-04-05T03:10:37.970Z,95767.81
2023-04-05T03:13:40.061Z,95771.88
2023-04-05T03:16:43.414Z,95764.84
2023-04-05T03:19:45.036Z,95761.22
2023-04-05T03:22:46.779Z,95766.38
2023-04-05T03:25:48.661Z,95762.63
2023-04-05T03:28:50.672Z,95760.44
2023-04-05T03:31:53.908Z,95760.56
2023-04-05T03:34:56.002Z,95760.56
2023-04-05T03:37:57.587Z,95755.28
2023-04-05T03:40:59.172Z,95752.91
2023-04-05T03:44:01.681Z,95756.38
2023-04-05T03:47:04.800Z,95759.03
2023-04-05T03:50:07.433Z,95756.66
2023-04-05T03:53:11.588Z,95748.34
2023-04-05T03:56:13.552Z,95758.50
2023-04-05T03:59:15.289Z,95759.91
2023-04-05T04:02:18.261Z,95754.44
2023-04-05T04:05:20.708Z,95750.97
2023-04-05T04:08:22.801Z,95751.75
2023-04-05T04:11:24.842Z,95753.63
2023-04-05T04:14:26.363Z,95751.91
2023-04-05T04:17:30.065Z,95750.16
2023-04-05T04:20:31.924Z,95752.06
2023-04-05T04:23:33.453Z,95745.91
2023-04-05T04:26:35.333Z,95753.31
2023-04-05T04:29:36.982Z,95752.59
2023-04-05T04:32:42.791Z,95748.97
2023-04-05T04:35:44.940Z,95747.13
2023-04-05T04:38:46.890Z,95748.09
2023-04-05T04:41:48.749Z,95747.78
2023-04-05T04:44:50.250Z,95748.09
2023-04-05T04:47:53.223Z,95754.25
2023-04-05T04:51:02.233Z,95743.78
2023-04-05T04:54:04.012Z,95751.41
2023-04-05T04:57:05.661Z,95752.00
2023-04-05T05:00:08.525Z,95751.69
2023-04-05T05:03:12.083Z,95755.91
2023-04-05T05:06:16.945Z,95755.59
2023-04-05T05:09:18.994Z,95754.66
2023-04-05T05:12:23.664Z,95752.59
2023-04-05T05:15:25.511Z,95759.63
2023-04-05T05:18:28.610Z,95759.06
2023-04-05T05:21:30.291Z,95754.19
2023-04-05T05:24:31.803Z,95752.78
2023-04-05T05:27:33.608Z,95757.91
2023-04-05T05:30:35.259Z,95761.34
2023-04-05T05:33:38.128Z,95763.66
2023-04-05T05:36:44.671Z,95765.88
2023-04-05T05:39:46.177Z,95762.13
2023-04-05T05:42:48.087Z,95761.97
2023-04-05T05:45:49.761Z,95766.53
2023-04-05T05:48:52.978Z,95762.63
2023-04-05T05:51:54.812Z,95761.16
2023-04-05T05:54:56.694Z,95758.06
2023-04-05T05:57:59.470Z,95761.00
2023-04-05T06:01:01.026Z,95762.97
2023-04-05T06:04:04.515Z,95762.53
2023-04-05T06:07:06.212Z,95767.41
2023-04-05T06:10:08.212Z,95767.41
2023-04-05T06:13:09.947Z,95765.09
2023-04-05T06:16:11.684Z,95756.59
2023-04-05T06:19:15.005Z,95758.50
2023-04-05T06:22:17.447Z,95760.03
2023-04-05T06:25:19.260Z,95771.00
2023-04-05T06:28:20.957Z,95775.03
2023-04-05T06:31:26.492Z,95771.31
2023-04-05T06:34:32.450Z,95765.56
2023-04-05T06:37:34.113Z,95773.97
2023-04-05T06:40:35.722Z,95766.31
2023-04-05T06:43:37.522Z,95765.84
2023-04-05T06:46:39.503Z,95761.44
2023-04-05T06:49:42.809Z,95776.03
2023-04-05T06:52:44.551Z,95765.41
2023-04-05T06:55:49.069Z,95765.50
2023-04-05T06:58:50.834Z,95777.22
2023-04-05T07:01:52.562Z,95772.88
2023-04-05T07:04:55.481Z,95763.13
2023-04-05T07:07:57.041Z,95766.66
2023-04-05T07:10:59.367Z,95767.06
2023-04-05T07:14:03.359Z,95770.44
2023-04-05T07:17:06.315Z,95764.03
2023-04-05T07:20:11.343Z,95771.78
2023-04-05T07:23:12.963Z,95769.91
2023-04-05T07:26:14.599Z,95767.84
2023-04-05T07:29:18.435Z,95776.63
2023-04-05T07:32:20.415Z,95782.44
2023-04-05T07:35:23.534Z,95773.22
2023-04-05T07:38:26.196Z,95782.44
2023-04-05T07:41:28.779Z,95777.19
2023-04-05T07:44:30.529Z,95777.81
2023-04-05T07:47:34.567Z,95780.13
2023-04-05T07:50:40.017Z,95779.06
2023-04-05T07:53:43.663Z,95782.09
2023-04-05T07:56:45.234Z,95775.19
2023-04-05T07:59:46.812Z,95783.19
2023-04-05T08:02:48.359Z,95781.63
2023-04-05T08:05:54.737Z,95779.72
2023-04-05T08:08:56.448Z,95781.94
2023-04-05T08:11:58.167Z,95781.94
2023-04-05T08:14:59.750Z,95787.88
2023-04-05T08:18:01.592Z,95779.72
2023-04-05T08:21:04.706Z,95778.16
2023-04-05T08:24:06.469Z,95778.97
2023-04-05T08:27:07.985Z,95785.22
2023-04-05T08:30:09.879Z,95780.69
2023-04-05T08:33:11.464Z,95780.22
2023-04-05T08:36:14.438Z,95782.38
2023-04-05T08:39:17.180Z,95786.94
2023-04-05T08:42:23.322Z,95775.38
2023-04-05T08:45:25.469Z,95784.13
2023-04-05T08:48:27.919Z,95779.25
2023-04-05T08:51:30.866Z,95776.72
2023-04-05T08:54:32.774Z,95776.91
2023-04-05T08:57:37.459Z,95774.69
2023-04-05T09:00:39.956Z,95770.13
2023-04-05T09:03:43.441Z,95775.53
2023-04-05T09:06:47.612Z,95774.72
2023-04-05T09:09:52.629Z,95771.41
2023-04-05T09:12:54.223Z,95773.53
2023-04-05T09:15:56.309Z,95773.56
2023-04-05T09:18:58.095Z,95770.56
2023-04-05T09:22:02.231Z,95765.69
2023-04-05T09:25:04.270Z,95760.81
2023-04-05T09:28:06.197Z,95765.78
2023-04-05T09:31:08.088Z,95772.25
2023-04-05T09:34:10.081Z,95759.53
2023-04-05T09:37:13.914Z,95768.97
2023-04-05T09:40:15.820Z,95760.09
2023-04-05T09:43:33.101Z,95754.91
2023-04-05T09:46:35.657Z,95748.59
2023-04-05T09:49:37.380Z,95753.72
2023-04-05T09:52:40.292Z,95751.00
2023-04-05T09:55:42.862Z,95754.19
2023-04-05T09:58:44.555Z,95755.03
2023-04-05T10:01:51.467Z,95748.97
2023-04-05T10:04:53.418Z,95740.75
2023-04-05T10:07:56.597Z,95743.09
2023-04-05T10:10:58.852Z,95739.72
2023-04-05T10:14:01.926Z,95738.47
2023-04-05T10:17:32.594Z,95722.41
2023-04-05T10:20:39.502Z,95729.78
2023-04-05T10:23:44.670Z,95718.81
2023-04-05T10:26:52.306Z,95724.19
2023-04-05T10:30:02.960Z,95725.44
2023-04-05T10:33:10.620Z,95720.22
2023-04-05T10:36:16.368Z,95725.22
2023-04-05T10:39:23.205Z,95717.34
2023-04-05T10:42:27.355Z,95722.59
2023-04-05T10:45:29.172Z,95708.78
2023-04-05T10:48:44.910Z,95713.66
2023-04-05T10:51:46.925Z,95715.00
2023-04-05T10:54:50.017Z,95722.38
2023-04-05T10:57:51.990Z,95721.47
2023-04-05T11:00:54.681Z,95720.81
2023-04-05T11:03:56.670Z,95724.81
2023-04-05T11:07:13.120Z,95719.25
2023-04-05T11:10:17.680Z,95714.34
2023-04-05T11:13:20.576Z,95709.44
2023-04-05T11:16:22.917Z,95707.56
2023-04-05T11:19:39.416Z,95706.22
2023-04-05T11:22:53.736Z,95701.75
2023-04-05T11:26:03.885Z,95703.66
2023-04-05T11:29:05.476Z,95702.19
2023-04-05T11:32:11.684Z,95694.84
2023-04-05T11:35:13.840Z,95694.00
2023-04-05T11:38:22.139Z,95680.69
2023-04-05T11:41:25.199Z,95679.38
2023-04-05T11:44:27.417Z,95678.53
2023-04-05T11:47:29.239Z,95673.19
2023-04-05T11:50:31.462Z,95675.13
2023-04-05T11:53:33.040Z,95670.19
2023-04-05T11:56:36.088Z,95677.06
2023-04-05T11:59:38.717Z,95672.84
2023-04-05T12:02:43.185Z,95673.00
2023-04-05T12:05:45.752Z,95669.88
2023-04-05T12:08:49.006Z,95669.19
2023-04-05T12:11:53.337Z,95670.97
2023-04-05T12:15:01.978Z,95674.41
2023-04-05T12:18:04.671Z,95663.91
2023-04-05T12:21:08.184Z,95660.84
2023-04-05T12:24:10.001Z,95656.09
2023-04-05T12:27:13.294Z,95648.91
2023-04-05T12:30:16.909Z,95650.91
2023-04-05T12:33:28.434Z,95649.91
2023-04-05T12:36:30.223Z,95649.09
2023-04-05T12:39:32.353Z,95646.97
2023-04-05T12:42:35.985Z,95644.84
2023-04-05T12:45:37.867Z,95629.53
2023-04-05T12:48:41.678Z,95632.22
2023-04-05T12:51:44.387Z,95639.72
2023-04-05T12:54:54.112Z,95632.88
2023-04-05T12:57:58.639Z,95626.25
2023-04-05T13:01:00.482Z,95621.16
2023-04-05T13:04:14.736Z,95623.97
2023-04-05T13:07:18.404Z,95620.38
2023-04-05T13:10:20.982Z,95623.88
2023-04-05T13:13:24.155Z,95618.72
2023-04-05T13:16:26.905Z,95622.09
2023-04-05T13:19:29.988Z,95622.56
2023-04-05T13:22:31.636Z,95622.44
2023-04-05T13:25:33.144Z,95618.19
2023-04-05T13:28:36.149Z,95605.28
2023-04-05T13:31:37.742Z,95614.94
2023-04-05T13:34:39.655Z,95607.78
2023-04-05T13:37:41.584Z,95607.78
2023-04-05T13:40:43.691Z,95599.38
2023-04-05T13:43:46.566Z,95602.22
2023-04-05T13:46:48.147Z,95602.44
2023-04-05T13:49:49.770Z,95596.88
2023-04-05T13:52:51.802Z,95592.91
2023-04-05T13:55:53.375Z,95595.97
2023-04-05T13:58:56.515Z,95588.38
2023-04-05T14:01:58.363Z,95591.16
2023-04-05T14:05:02.653Z,95588.94
2023-04-05T14:08:04.225Z,95587.19
2023-04-05T14:11:06.716Z,95582.22
2023-04-05T14:14:11.918Z,95577.56
2023-04-05T14:17:13.554Z,95582.00
2023-04-05T14:20:15.092Z,95581.31
2023-04-05T14:23:16.716Z,95581.44
2023-04-05T14:26:18.277Z,95586.50
2023-04-05T14:29:21.237Z,95586.59
2023-04-05T14:32:23.512Z,95578.97
2023-04-05T14:35:25.140Z,95582.53
2023-04-05T14:38:26.900Z,95583.84
2023-04-05T14:41:28.695Z,95577.72
2023-04-05T14:44:31.776Z,95576.56
2023-04-05T14:47:33.587Z,95580.66
2023-04-05T14:50:35.254Z,95587.13
2023-04-05T14:53:37.066Z,95577.28
2023-04-05T14:56:38.601Z,95579.56
2023-04-05T14:59:41.534Z,95567.56
2023-04-05T15:02:44.897Z,95580.59
2023-04-05T15:05:46.928Z,95579.31
2023-04-05T15:08:48.708Z,95587.50
2023-04-05T15:11:50.416Z,95581.91
2023-04-05T15:14:53.347Z,95574.97
2023-04-05T15:17:54.963Z,95578.03
2023-04-05T15:20:56.541Z,95579.38
2023-04-05T15:23:58.962Z,95575.69
2023-04-05T15:27:00.479Z,95580.56
2023-04-05T15:30:03.846Z,95578.75
2023-04-05T15:33:06.109Z,95576.50
2023-04-05T15:36:08.265Z,95573.16
2023-04-05T15:39:09.814Z,95575.69
2023-04-05T15:42:11.385Z,95584.94
2023-04-05T15:45:14.290Z,95583.13
2023-04-05T15:48:15.854Z,95579.09
2023-04-05T15:51:17.372Z,95573.81
2023-04-05T15:54:19.144Z,95576.56
2023-04-05T15:57:20.699Z,95590.41
2023-04-05T16:00:23.798Z,95582.22
2023-04-05T16:03:25.456Z,95581.09
2023-04-05T16:06:27.113Z,95581.97
2023-04-05T16:09:28.644Z,95584.00
2023-04-05T16:12:30.256Z,95583.75
2023-04-05T16:15:33.423Z,95576.56
2023-04-05T16:18:35.398Z,95579.84
2023-04-05T16:21:37.017Z,95586.47
2023-04-05T16:24:38.755Z,95582.75
2023-04-05T16:27:40.418Z,95575.81
2023-04-05T16:30:44.734Z,95572.47
2023-04-05T16:33:47.241Z,95570.19
2023-04-05T16:36:48.943Z,95570.25
2023-04-05T16:39:50.645Z,95580.47
2023-04-05T16:42:52.224Z,95583.16
2023-04-05T16:45:55.232Z,95579.44
2023-04-05T16:48:56.900Z,95582.94
2023-04-05T16:51:58.472Z,95583.72
2023-04-05T16:55:00.236Z,95580.66
2023-04-05T16:58:01.858Z,95582.22
2023-04-05T17:01:04.879Z,95581.03
2023-04-05T17:04:06.822Z,95581.34
2023-04-05T17:07:08.314Z,95584.22
2023-04-05T17:10:10.198Z,95591.25
2023-04-05T17:13:11.701Z,95585.09
2023-04-05T17:16:15.074Z,95580.94
2023-04-05T17:19:16.966Z,95592.81
2023-04-05T17:22:18.736Z,95591.78
2023-04-05T17:25:20.240Z,95585.38
2023-04-05T17:28:23.048Z,95597.28
2023-04-05T17:31:26.031Z,95593.03
2023-04-05T17:34:27.683Z,95595.59
2023-04-05T17:37:29.487Z,95597.16
2023-04-05T17:40:32.717Z,95599.25
2023-04-05T17:43:34.351Z,95599.50
2023-04-05T17:46:41.621Z,95598.16
2023-04-05T17:49:46.865Z,95606.25
2023-04-05T17:52:48.635Z,95600.31
2023-04-05T17:55:52.315Z,95605.06
2023-04-05T17:58:54.542Z,95601.75
2023-04-05T18:01:57.683Z,95598.31
2023-04-05T18:04:59.477Z,95605.09
2023-04-05T18:08:01.099Z,95611.84
2023-04-05T18:11:03.219Z,95614.88
2023-04-05T18:14:04.915Z,95614.38
2023-04-05T18:17:07.885Z,95616.19
2023-04-05T18:20:10.042Z,95618.66
2023-04-05T18:23:11.812Z,95615.28
2023-04-05T18:26:15.130Z,95625.09
2023-04-05T18:29:16.738Z,95625.94
2023-04-05T18:32:20.084Z,95625.38
2023-04-05T18:35:23.295Z,95629.78
2023-04-05T18:38:24.888Z,95631.34
2023-04-05T18:41:26.416Z,95636.03
2023-04-05T18:44:29.095Z,95641.81
2023-04-05T18:47:33.066Z,95644.94
2023-04-05T18:50:35.589Z,95646.72
2023-04-05T18:53:37.180Z,95646.28
2023-04-05T18:56:38.896Z,95650.91
2023-04-05T18:59:41.877Z,95658.59
2023-04-05T19:02:45.377Z,95653.84
2023-04-05T19:05:50.957Z,95651.00
2023-04-05T19:08:52.559Z,95651.72
2023-04-05T19:11:54.075Z,95661.19
2023-04-05T19:14:55.676Z,95658.16
2023-04-05T19:17:58.819Z,95669.97
2023-04-05T19:21:01.334Z,95662.22
2023-04-05T19:24:03.480Z,95663.31
2023-04-05T19:27:05.347Z,95673.22
2023-04-05T19:30:07.693Z,95668.84
2023-04-05T19:33:13.311Z,95670.66
2023-04-05T19:36:15.316Z,95665.41
2023-04-05T19:39:17.358Z,95667.91
2023-04-05T19:42:20.870Z,95669.72
2023-04-05T19:45:24.632Z,95678.06
2023-04-05T19:48:37.462Z,95674.84
2023-04-05T19:51:39.347Z,95670.28
2023-04-05T19:54:42.752Z,95674.31
2023-04-05T19:57:44.318Z,95673.56
2023-04-05T20:00:48.814Z,95675.25
2023-04-05T20:03:51.820Z,95671.66
2023-04-05T20:06:54.526Z,95677.91
2023-04-05T20:09:56.864Z,95669.47
2023-04-05T20:12:58.505Z,95672.72
2023-04-05T20:16:00.279Z,95672.19
2023-04-05T20:19:04.802Z,95674.56
2023-04-05T20:22:07.395Z,95670.75
2023-04-05T20:25:30.242Z,95665.50
2023-04-05T20:28:35.802Z,95670.03
2023-04-05T20:31:39.293Z,95659.97
2023-04-05T20:34:44.886Z,95655.84
2023-04-05T20:37:46.826Z,95662.28
2023-04-05T20:40:48.390Z,95661.16
2023-04-05T20:43:50.244Z,95663.19
2023-04-05T20:46:52.252Z,95660.53
2023-04-05T20:49:55.424Z,95665.91
2023-04-05T20:52:58.301Z,95662.00
2023-04-05T20:56:00.633Z,95662.59
2023-04-05T20:59:02.301Z,95664.72
2023-04-05T21:02:03.980Z,95668.44
2023-04-05T21:05:07.525Z,95662.59
2023-04-05T21:08:09.071Z,95666.69
2023-04-05T21:11:10.745Z,95666.09
2023-04-05T21:14:12.515Z,95661.75
2023-04-05T21:17:16.211Z,95665.19
2023-04-05T21:20:19.170Z,95661.91
2023-04-05T21:23:22.780Z,95670.72
2023-04-05T21:26:24.870Z,95671.94
2023-04-05T21:29:26.409Z,95672.28
2023-04-05T21:32:28.050Z,95668.88
2023-04-05T21:35:31.804Z,95673.56
2023-04-05T21:38:33.601Z,95657.75
2023-04-05T21:41:37.695Z,95667.25
2023-04-05T21:44:39.997Z,95663.13
2023-04-05T21:47:42.194Z,95669.28
2023-04-05T21:50:45.553Z,95668.59
2023-04-05T21:53:49.944Z,95663.13
2023-04-05T21:56:51.704Z,95665.72
2023-04-05T21:59:54.374Z,95665.31
2023-04-05T22:02:55.944Z,95667.50
2023-04-05T22:06:01.132Z,95660.75
2023-04-05T22:09:03.916Z,95672.59
2023-04-05T22:12:05.767Z,95666.19
2023-04-05T22:15:08.271Z,95672.09
2023-04-05T22:18:09.945Z,95672.38
2023-04-05T22:21:13.114Z,95673.81
2023-04-05T22:24:14.746Z,95672.75
2023-04-05T22:27:17.304Z,95676.09
2023-04-05T22:30:19.685Z,95678.22
2023-04-05T22:33:21.293Z,95670.69
2023-04-05T22:36:24.308Z,95675.91
2023-04-05T22:39:26.699Z,95680.91
2023-04-05T22:42:28.403Z,95676.84
2023-04-05T22:45:32.575Z,95670.16
2023-04-05T22:48:34.721Z,95679.72
2023-04-05T22:51:37.953Z,95666.59
2023-04-05T22:54:39.540Z,95672.72
2023-04-05T22:57:41.270Z,95680.22
2023-04-05T23:00:43.414Z,95688.34
2023-04-05T23:03:45.154Z,95677.69
2023-04-05T23:06:48.227Z,95679.72
2023-04-05T23:09:51.293Z,95683.00
2023-04-05T23:12:52.946Z,95680.53
2023-04-05T23:15:54.538Z,95683.78
2023-04-05T23:18:56.091Z,95682.53
2023-04-05T23:21:59.565Z,95674.56
2023-04-05T23:25:01.201Z,95686.47
2023-04-05T23:28:03.945Z,95688.31
2023-04-05T23:31:05.627Z,95686.16
2023-04-05T23:34:07.211Z,95675.31
2023-04-05T23:37:10.139Z,95684.44
2023-04-05T23:40:11.886Z,95676.13
2023-04-05T23:43:13.948Z,95674.84
2023-04-05T23:46:15.906Z,95672.84
2023-04-05T23:49:17.561Z,95676.75
2023-04-05T23:52:20.639Z,95670.47
2023-04-05T23:55:23.603Z,95670.19
2023-04-05T23:58:25.396Z,95663.25
